createdAt,value
2018-07-20T00:01:02.263Z,7.43
2018-07-20T00:03:30.510Z,8.17
2018-07-20T00:05:58.739Z,7.87
2018-07-20T00:08:27.045Z,6.60
2018-07-20T00:10:55.279Z,10.23
2018-07-20T00:13:23.700Z,6.07
2018-07-20T00:15:51.968Z,8.90
2018-07-20T00:18:20.189Z,14.73
2018-07-20T00:20:48.425Z,7.33
2018-07-20T00:23:16.653Z,7.90
2018-07-20T00:25:44.933Z,8.00
2018-07-20T00:28:13.383Z,11.90
2018-07-20T00:30:41.623Z,8.63
2018-07-20T00:33:09.817Z,8.80
2018-07-20T00:35:38.044Z,7.00
2018-07-20T00:38:06.280Z,8.83
2018-07-20T00:40:34.581Z,6.93
2018-07-20T00:43:02.804Z,11.83
2018-07-20T00:45:31.024Z,7.37
2018-07-20T00:47:59.249Z,7.60
2018-07-20T00:50:27.859Z,10.37
2018-07-20T00:52:56.065Z,6.70
2018-07-20T00:55:24.283Z,7.57
2018-07-20T00:57:52.489Z,7.23
2018-07-20T01:00:20.720Z,5.37
2018-07-20T01:02:48.964Z,8.03
2018-07-20T01:05:17.185Z,8.93
2018-07-20T01:07:45.401Z,7.77
2018-07-20T01:10:13.625Z,6.73
2018-07-20T01:12:41.859Z,6.27
2018-07-20T01:15:10.113Z,9.90
2018-07-20T01:17:38.350Z,6.50
2018-07-20T01:20:07.149Z,6.33
2018-07-20T01:22:35.400Z,7.63
2018-07-20T01:25:03.657Z,8.63
2018-07-20T01:27:31.991Z,6.80
2018-07-20T01:30:00.225Z,8.57
2018-07-20T01:32:28.524Z,11.13
2018-07-20T01:34:56.742Z,6.17
2018-07-20T01:37:24.965Z,7.27
2018-07-20T01:39:53.211Z,8.13
2018-07-20T01:42:21.437Z,6.27
2018-07-20T01:44:49.649Z,6.23
2018-07-20T01:47:17.919Z,7.17
2018-07-20T01:49:46.146Z,10.63
2018-07-20T01:52:14.188Z,10.53
2018-07-20T01:54:42.430Z,12.53
2018-07-20T01:57:10.617Z,10.80
2018-07-20T01:59:38.840Z,8.97
2018-07-20T02:02:07.082Z,6.67
2018-07-20T02:04:35.288Z,8.70
2018-07-20T02:07:03.533Z,8.50
2018-07-20T02:09:31.753Z,6.80
2018-07-20T02:11:59.933Z,9.30
2018-07-20T02:14:28.302Z,7.83
2018-07-20T02:16:56.569Z,8.60
2018-07-20T02:19:24.785Z,5.80
2018-07-20T02:21:52.989Z,8.13
2018-07-20T02:24:21.203Z,7.33
2018-07-20T02:26:49.452Z,7.80
2018-07-20T02:29:17.687Z,10.73
2018-07-20T02:31:45.873Z,7.40
2018-07-20T02:34:14.097Z,8.97
2018-07-20T02:36:42.301Z,8.57
2018-07-20T02:39:12.816Z,8.63
2018-07-20T02:41:41.613Z,6.47
2018-07-20T02:44:10.585Z,7.03
2018-07-20T02:46:39.192Z,6.50
2018-07-20T02:49:07.698Z,6.90
2018-07-20T02:51:35.898Z,6.53
2018-07-20T02:54:05.130Z,6.27
2018-07-20T02:56:33.525Z,8.00
2018-07-20T02:59:01.797Z,8.53
2018-07-20T03:01:30.182Z,12.03
2018-07-20T03:03:58.381Z,5.27
2018-07-20T03:06:26.594Z,12.87
2018-07-20T03:08:54.919Z,9.80
2018-07-20T03:11:23.105Z,6.00
2018-07-20T03:13:51.313Z,8.37
2018-07-20T03:16:19.619Z,8.97
2018-07-20T03:18:47.854Z,8.37
2018-07-20T03:21:16.644Z,5.53
2018-07-20T03:23:44.853Z,5.83
2018-07-20T03:26:13.074Z,6.00
2018-07-20T03:28:41.267Z,9.50
2018-07-20T03:31:09.519Z,5.63
2018-07-20T03:33:37.769Z,6.90
2018-07-20T03:36:06.193Z,12.83
2018-07-20T03:38:34.426Z,6.20
2018-07-20T03:41:02.658Z,7.90
2018-07-20T03:43:30.882Z,5.80
2018-07-20T03:45:59.106Z,6.17
2018-07-20T03:48:27.317Z,9.30
2018-07-20T03:50:55.520Z,10.30
2018-07-20T03:53:23.746Z,8.70
2018-07-20T03:55:51.950Z,6.53
2018-07-20T03:58:20.340Z,10.63
2018-07-20T04:00:48.780Z,7.67
2018-07-20T04:03:17.003Z,6.80
2018-07-20T04:05:45.213Z,10.53
2018-07-20T04:08:13.523Z,8.03
2018-07-20T04:10:41.710Z,7.23
2018-07-20T04:13:09.934Z,5.80
2018-07-20T04:15:38.138Z,9.27
2018-07-20T04:18:06.378Z,11.07
2018-07-20T04:20:34.613Z,7.00
2018-07-20T04:23:03.065Z,11.77
2018-07-20T04:25:31.250Z,8.13
2018-07-20T04:27:59.453Z,9.10
2018-07-20T04:30:27.649Z,8.13
2018-07-20T04:32:55.874Z,7.97
2018-07-20T04:35:24.119Z,14.90
2018-07-20T04:37:53.337Z,15.07
2018-07-20T04:40:21.587Z,11.63
2018-07-20T04:42:49.790Z,8.87
2018-07-20T04:45:17.997Z,13.27
2018-07-20T04:47:46.217Z,7.53
2018-07-20T04:50:14.433Z,17.00
2018-07-20T04:52:42.626Z,10.53
2018-07-20T04:55:10.833Z,13.93
2018-07-20T04:57:39.057Z,17.27
2018-07-20T05:00:07.280Z,13.70
2018-07-20T05:02:35.510Z,15.07
2018-07-20T05:05:03.737Z,22.93
2018-07-20T05:07:31.708Z,27.67
2018-07-20T05:09:59.951Z,25.27
2018-07-20T05:12:28.190Z,25.57
2018-07-20T05:14:56.414Z,12.43
2018-07-20T05:17:24.614Z,16.23
2018-07-20T05:19:52.809Z,18.43
2018-07-20T05:22:21.029Z,15.97
2018-07-20T05:24:49.234Z,28.03
2018-07-20T05:27:17.454Z,22.27
2018-07-20T05:29:45.661Z,24.97
2018-07-20T05:32:13.926Z,23.87
2018-07-20T05:34:42.173Z,24.07
2018-07-20T05:37:10.385Z,28.23
2018-07-20T05:39:38.761Z,31.10
2018-07-20T05:42:06.978Z,30.20
2018-07-20T05:44:35.212Z,17.03
2018-07-20T05:47:03.500Z,36.40
2018-07-20T05:49:31.869Z,25.47
2018-07-20T05:52:00.329Z,28.03
2018-07-20T05:54:28.820Z,27.37
2018-07-20T05:56:57.273Z,32.10
2018-07-20T05:59:26.122Z,22.67
2018-07-20T06:01:55.196Z,21.30
2018-07-20T06:04:23.930Z,22.77
2018-07-20T06:06:52.269Z,29.33
2018-07-20T06:09:20.894Z,17.70
2018-07-20T06:11:49.687Z,22.73
2018-07-20T06:14:18.206Z,27.13
2018-07-20T06:16:46.767Z,20.60
2018-07-20T06:19:15.138Z,15.00
2018-07-20T06:21:43.549Z,18.90
2018-07-20T06:24:11.620Z,18.70
2018-07-20T06:26:40.108Z,24.13
2018-07-20T06:29:08.470Z,14.83
2018-07-20T06:31:36.815Z,16.07
2018-07-20T06:34:05.386Z,15.53
2018-07-20T06:36:34.011Z,30.13
2018-07-20T06:39:02.728Z,21.73
2018-07-20T06:41:31.331Z,18.17
2018-07-20T06:43:59.829Z,31.43
2018-07-20T06:46:28.519Z,19.97
2018-07-20T06:48:56.812Z,16.33
2018-07-20T06:51:25.279Z,29.67
2018-07-20T06:53:53.780Z,18.00
2018-07-20T06:56:22.182Z,21.43
2018-07-20T06:58:50.414Z,33.63
2018-07-20T07:01:18.634Z,20.70
2018-07-20T07:03:46.825Z,22.67
2018-07-20T07:06:15.105Z,25.90
2018-07-20T07:08:43.362Z,27.30
2018-07-20T07:11:11.568Z,16.90
2018-07-20T07:13:39.791Z,24.17
2018-07-20T07:16:08.018Z,47.83
2018-07-20T07:18:36.305Z,38.50
2018-07-20T07:21:05.710Z,28.63
2018-07-20T07:23:35.031Z,18.70
2018-07-20T07:26:03.272Z,16.97
2018-07-20T07:28:31.477Z,19.63
2018-07-20T07:30:59.869Z,22.97
2018-07-20T07:33:28.316Z,18.53
2018-07-20T07:35:56.600Z,11.90
2018-07-20T07:38:25.067Z,9.13
2018-07-20T07:40:53.266Z,12.83
2018-07-20T07:43:21.504Z,21.13
2018-07-20T07:45:49.904Z,18.90
2018-07-20T07:48:18.281Z,13.93
2018-07-20T07:50:46.604Z,9.90
2018-07-20T07:53:15.037Z,12.57
2018-07-20T07:55:43.549Z,12.87
2018-07-20T07:58:12.104Z,13.63
2018-07-20T08:00:40.380Z,11.63
2018-07-20T08:03:08.899Z,9.07
2018-07-20T08:05:37.074Z,6.20
2018-07-20T08:08:05.983Z,7.67
2018-07-20T08:10:35.047Z,9.83
2018-07-20T08:13:04.154Z,6.73
2018-07-20T08:15:32.899Z,8.13
2018-07-20T08:18:01.278Z,13.30
2018-07-20T08:20:29.640Z,7.67
2018-07-20T08:22:58.106Z,11.73
2018-07-20T08:25:26.646Z,9.43
2018-07-20T08:27:55.417Z,9.87
2018-07-20T08:30:24.056Z,9.77
2018-07-20T08:32:52.502Z,9.47
2018-07-20T08:35:20.882Z,22.40
2018-07-20T08:37:49.427Z,46.67
2018-07-20T08:40:17.913Z,22.80
2018-07-20T08:42:46.366Z,11.27
2018-07-20T08:45:14.785Z,11.40
2018-07-20T08:47:43.072Z,10.73
2018-07-20T08:50:11.425Z,10.53
2018-07-20T08:52:39.776Z,14.73
2018-07-20T08:55:08.103Z,6.23
2018-07-20T08:57:36.768Z,8.97
2018-07-20T09:00:06.299Z,7.67
2018-07-20T09:02:35.164Z,8.30
2018-07-20T09:05:04.320Z,32.50
2018-07-20T09:07:32.851Z,32.20
2018-07-20T09:10:01.163Z,31.73
2018-07-20T09:12:29.721Z,13.90
2018-07-20T09:14:57.985Z,11.50
2018-07-20T09:17:26.345Z,12.57
2018-07-20T09:19:54.965Z,7.27
2018-07-20T09:22:23.266Z,6.60
2018-07-20T09:24:51.834Z,7.80
2018-07-20T09:27:20.386Z,7.40
2018-07-20T09:29:48.691Z,9.37
2018-07-20T09:32:16.998Z,9.70
2018-07-20T09:34:45.429Z,12.43
2018-07-20T09:37:13.886Z,4.80
2018-07-20T09:39:42.267Z,7.60
2018-07-20T09:42:10.654Z,25.07
2018-07-20T09:44:39.594Z,6.87
2018-07-20T09:47:08.471Z,7.67
2018-07-20T09:49:36.825Z,11.17
2018-07-20T09:52:05.289Z,11.83
2018-07-20T09:54:33.873Z,5.90
2018-07-20T09:57:02.582Z,10.30
2018-07-20T09:59:30.889Z,5.20
2018-07-20T10:01:59.117Z,8.30
2018-07-20T10:04:27.347Z,7.90
2018-07-20T10:06:55.364Z,11.57
2018-07-20T10:09:23.574Z,7.97
2018-07-20T10:11:51.908Z,9.47
2018-07-20T10:14:20.593Z,5.47
2018-07-20T10:16:48.825Z,6.03
2018-07-20T10:19:17.060Z,10.00
2018-07-20T10:21:45.303Z,9.73
2018-07-20T10:24:13.500Z,6.00
2018-07-20T10:26:41.731Z,5.23
2018-07-20T10:29:09.941Z,7.70
2018-07-20T10:31:38.157Z,6.23
2018-07-20T10:34:06.392Z,6.07
2018-07-20T10:36:34.684Z,6.83
2018-07-20T10:39:02.944Z,6.93
2018-07-20T10:41:31.177Z,9.30
2018-07-20T10:43:59.498Z,7.17
2018-07-20T10:46:27.737Z,5.97
2018-07-20T10:48:56.020Z,9.80
2018-07-20T10:51:24.277Z,6.67
2018-07-20T10:53:52.807Z,7.63
2018-07-20T10:56:21.413Z,6.53
2018-07-20T10:58:49.841Z,8.57
2018-07-20T11:01:18.110Z,5.07
2018-07-20T11:03:46.364Z,4.43
2018-07-20T11:06:14.696Z,7.73
2018-07-20T11:08:42.917Z,6.67
2018-07-20T11:11:11.141Z,11.80
2018-07-20T11:13:39.422Z,7.37
2018-07-20T11:16:07.904Z,11.23
2018-07-20T11:18:36.594Z,5.03
2018-07-20T11:21:05.261Z,9.27
2018-07-20T11:23:33.652Z,10.97
2018-07-20T11:26:02.364Z,9.60
2018-07-20T11:28:30.952Z,7.27
2018-07-20T11:30:59.402Z,6.67
2018-07-20T11:33:27.964Z,10.13
2018-07-20T11:35:56.579Z,6.70
2018-07-20T11:38:25.177Z,11.20
2018-07-20T11:40:53.669Z,9.67
2018-07-20T11:43:22.002Z,9.43
2018-07-20T11:45:50.948Z,8.57
2018-07-20T11:48:19.598Z,15.60
2018-07-20T11:50:48.175Z,14.03
2018-07-20T11:53:16.794Z,8.70
2018-07-20T11:55:45.281Z,8.03
2018-07-20T11:58:13.741Z,11.17
2018-07-20T12:00:42.190Z,7.77
2018-07-20T12:03:10.904Z,5.37
2018-07-20T12:05:39.663Z,7.03
2018-07-20T12:08:08.082Z,7.13
2018-07-20T12:10:36.706Z,8.33
2018-07-20T12:13:05.067Z,5.87
2018-07-20T12:15:33.427Z,9.43
2018-07-20T12:18:02.016Z,10.77
2018-07-20T12:20:30.388Z,8.80
2018-07-20T12:22:58.888Z,9.40
2018-07-20T12:25:27.165Z,10.80
2018-07-20T12:27:55.385Z,13.53
2018-07-20T12:30:23.576Z,4.80
2018-07-20T12:32:52.248Z,10.53
2018-07-20T12:35:20.225Z,12.13
2018-07-20T12:37:48.693Z,12.23
2018-07-20T12:40:17.361Z,10.20
2018-07-20T12:42:45.757Z,5.67
2018-07-20T12:45:14.260Z,7.97
2018-07-20T12:47:42.907Z,9.97
2018-07-20T12:50:11.448Z,11.53
2018-07-20T12:52:40.922Z,7.87
2018-07-20T12:55:09.795Z,7.97
2018-07-20T12:57:38.355Z,5.60
2018-07-20T13:00:07.153Z,6.97
2018-07-20T13:02:35.509Z,10.77
2018-07-20T13:05:03.853Z,11.53
2018-07-20T13:07:32.101Z,10.20
2018-07-20T13:10:00.321Z,12.73
2018-07-20T13:12:28.578Z,17.03
2018-07-20T13:14:56.792Z,13.77
2018-07-20T13:17:24.772Z,9.80
2018-07-20T13:19:53.067Z,6.93
2018-07-20T13:22:21.266Z,5.40
2018-07-20T13:24:49.644Z,9.03
2018-07-20T13:27:17.953Z,12.30
2018-07-20T13:29:46.174Z,9.10
2018-07-20T13:32:14.378Z,8.07
2018-07-20T13:34:42.581Z,9.23
2018-07-20T13:37:10.799Z,10.07
2018-07-20T13:39:39.001Z,6.53
2018-07-20T13:42:07.261Z,9.27
2018-07-20T13:44:35.524Z,9.13
2018-07-20T13:47:03.969Z,10.97
2018-07-20T13:49:32.281Z,18.17
2018-07-20T13:52:00.501Z,10.77
2018-07-20T13:54:28.761Z,5.23
2018-07-20T13:56:57.326Z,6.90
2018-07-20T13:59:25.595Z,6.87
2018-07-20T14:01:53.810Z,11.57
2018-07-20T14:04:22.142Z,45.63
2018-07-20T14:06:50.560Z,11.87
2018-07-20T14:09:18.789Z,21.17
2018-07-20T14:11:46.998Z,8.73
2018-07-20T14:14:15.217Z,8.23
2018-07-20T14:16:43.519Z,9.53
2018-07-20T14:19:11.899Z,7.63
2018-07-20T14:21:40.145Z,11.10
2018-07-20T14:24:08.413Z,6.00
2018-07-20T14:26:36.634Z,11.90
2018-07-20T14:29:04.922Z,9.27
2018-07-20T14:31:33.195Z,9.27
2018-07-20T14:34:01.253Z,6.03
2018-07-20T14:36:29.558Z,5.80
2018-07-20T14:38:58.093Z,9.00
2018-07-20T14:41:26.606Z,8.33
2018-07-20T14:43:54.862Z,10.67
2018-07-20T14:46:23.449Z,10.40
2018-07-20T14:48:51.698Z,9.53
2018-07-20T14:51:19.936Z,6.20
2018-07-20T14:53:48.170Z,6.63
2018-07-20T14:56:16.432Z,11.63
2018-07-20T14:58:44.639Z,9.43
2018-07-20T15:01:12.882Z,10.03
2018-07-20T15:03:41.078Z,8.13
2018-07-20T15:06:09.352Z,6.23
2018-07-20T15:08:37.611Z,5.30
2018-07-20T15:11:05.899Z,9.87
2018-07-20T15:13:34.113Z,8.40
2018-07-20T15:16:02.338Z,9.20
2018-07-20T15:18:30.746Z,10.80
2018-07-20T15:20:58.953Z,5.23
2018-07-20T15:23:27.184Z,6.50
2018-07-20T15:25:55.422Z,10.90
2018-07-20T15:28:23.622Z,5.33
2018-07-20T15:30:51.869Z,4.77
2018-07-20T15:33:20.172Z,10.27
2018-07-20T15:35:48.382Z,8.97
2018-07-20T15:38:16.686Z,10.50
2018-07-20T15:40:44.930Z,10.23
2018-07-20T15:43:13.306Z,9.47
2018-07-20T15:45:51.816Z,5.77
2018-07-20T15:48:09.729Z,7.03
2018-07-20T15:50:37.941Z,8.33
2018-07-20T15:53:37.222Z,6.63
2018-07-20T15:55:35.453Z,5.50
2018-07-20T15:58:03.712Z,6.03
2018-07-20T16:00:31.914Z,8.40
2018-07-20T16:03:00.138Z,13.50
2018-07-20T16:05:28.384Z,14.37
2018-07-20T16:07:56.624Z,17.07
2018-07-20T16:10:24.844Z,14.80
2018-07-20T16:12:53.049Z,6.90
2018-07-20T16:15:21.250Z,9.20
2018-07-20T16:17:49.468Z,12.27
2018-07-20T16:20:17.935Z,9.07
2018-07-20T16:22:46.183Z,9.30
2018-07-20T16:25:14.379Z,9.23
2018-07-20T16:27:42.610Z,7.37
2018-07-20T16:30:10.855Z,10.43
2018-07-20T16:32:39.090Z,8.87
2018-07-20T16:35:07.308Z,9.73
2018-07-20T16:37:36.360Z,7.47
2018-07-20T16:40:05.069Z,6.40
2018-07-20T16:42:33.252Z,9.23
2018-07-20T16:45:01.509Z,5.47
2018-07-20T16:47:29.771Z,5.93
2018-07-20T16:49:58.016Z,11.33
2018-07-20T16:52:26.269Z,8.63
2018-07-20T16:54:54.552Z,9.40
2018-07-20T16:57:22.813Z,8.77
2018-07-20T16:59:51.145Z,7.80
2018-07-20T17:02:19.345Z,4.90
2018-07-20T17:04:47.556Z,6.83
2018-07-20T17:07:15.852Z,12.23
2018-07-20T17:09:44.243Z,9.70
2018-07-20T17:12:12.466Z,5.17
2018-07-20T17:14:40.937Z,5.47
2018-07-20T17:17:09.219Z,17.13
2018-07-20T17:19:37.451Z,6.60
2018-07-20T17:22:05.752Z,10.27
2018-07-20T17:24:34.095Z,9.03
2018-07-20T17:27:02.353Z,12.77
2018-07-20T17:29:30.546Z,9.47
2018-07-20T17:31:58.781Z,11.70
2018-07-20T17:34:27.023Z,9.87
2018-07-20T17:36:55.228Z,7.33
2018-07-20T17:39:23.483Z,13.80
2018-07-20T17:41:51.718Z,16.77
2018-07-20T17:44:19.942Z,11.70
2018-07-20T17:46:48.424Z,11.03
2018-07-20T17:49:16.633Z,8.87
2018-07-20T17:51:44.870Z,15.97
2018-07-20T17:54:13.077Z,8.03
2018-07-20T17:56:41.293Z,7.70
2018-07-20T17:59:09.528Z,7.80
2018-07-20T18:01:37.781Z,9.70
2018-07-20T18:04:06.058Z,9.47
2018-07-20T18:06:34.373Z,8.07
2018-07-20T18:09:02.617Z,12.93
2018-07-20T18:11:30.835Z,8.00
2018-07-20T18:13:59.077Z,8.97
2018-07-20T18:16:27.281Z,11.63
2018-07-20T18:18:55.499Z,9.97
2018-07-20T18:21:23.734Z,9.57
2018-07-20T18:23:51.958Z,6.53
2018-07-20T18:26:20.160Z,12.80
2018-07-20T18:28:48.416Z,15.13
2018-07-20T18:31:16.614Z,22.80
2018-07-20T18:33:44.880Z,15.23
2018-07-20T18:36:13.908Z,9.57
2018-07-20T18:38:42.122Z,8.53
2018-07-20T18:41:10.341Z,11.00
2018-07-20T18:43:38.545Z,10.70
2018-07-20T18:46:06.838Z,18.90
2018-07-20T18:48:35.081Z,11.63
2018-07-20T18:51:03.334Z,10.80
2018-07-20T18:53:31.545Z,8.10
2018-07-20T18:55:59.828Z,14.90
2018-07-20T18:58:28.898Z,16.50
2018-07-20T19:00:57.178Z,14.07
2018-07-20T19:03:25.384Z,18.70
2018-07-20T19:05:53.598Z,15.53
2018-07-20T19:08:21.813Z,16.53
2018-07-20T19:10:50.058Z,16.13
2018-07-20T19:13:18.383Z,7.67
2018-07-20T19:15:46.605Z,8.03
2018-07-20T19:18:14.818Z,6.10
2018-07-20T19:20:43.026Z,7.90
2018-07-20T19:23:11.383Z,15.43
2018-07-20T19:25:39.598Z,15.87
2018-07-20T19:28:07.854Z,17.07
2018-07-20T19:30:36.078Z,9.00
2018-07-20T19:33:04.300Z,19.90
2018-07-20T19:35:32.569Z,12.50
2018-07-20T19:38:00.802Z,6.77
2018-07-20T19:40:29.087Z,14.83
2018-07-20T19:42:57.242Z,12.13
2018-07-20T19:45:25.466Z,21.90
2018-07-20T19:47:53.672Z,18.40
2018-07-20T19:50:21.891Z,13.50
2018-07-20T19:52:50.130Z,12.23
2018-07-20T19:55:18.340Z,11.57
2018-07-20T19:57:46.572Z,10.00
2018-07-20T20:00:14.775Z,8.07
2018-07-20T20:02:42.996Z,8.60
2018-07-20T20:05:11.024Z,9.17
2018-07-20T20:07:39.258Z,13.20
2018-07-20T20:10:07.705Z,8.57
2018-07-20T20:12:35.966Z,6.87
2018-07-20T20:15:04.571Z,9.60
2018-07-20T20:17:32.773Z,13.20
2018-07-20T20:20:00.992Z,13.10
2018-07-20T20:22:29.274Z,10.07
2018-07-20T20:24:57.513Z,10.43
2018-07-20T20:27:25.717Z,13.87
2018-07-20T20:29:53.925Z,22.37
2018-07-20T20:32:22.202Z,13.67
2018-07-20T20:34:50.450Z,15.67
2018-07-20T20:37:18.664Z,9.20
2018-07-20T20:39:47.054Z,9.07
2018-07-20T20:42:15.270Z,9.97
2018-07-20T20:44:43.473Z,8.83
2018-07-20T20:47:11.700Z,8.57
2018-07-20T20:49:39.922Z,12.53
2018-07-20T20:52:08.149Z,8.50
2018-07-20T20:54:36.362Z,7.30
2018-07-20T20:57:04.573Z,13.20
2018-07-20T20:59:32.841Z,12.87
2018-07-20T21:02:01.039Z,14.47
2018-07-20T21:04:29.261Z,11.67
2018-07-20T21:06:57.473Z,17.67
2018-07-20T21:09:25.746Z,11.83
2018-07-20T21:11:54.019Z,11.97
2018-07-20T21:14:22.197Z,7.97
2018-07-20T21:16:51.165Z,9.83
2018-07-20T21:19:19.376Z,13.40
2018-07-20T21:21:47.605Z,11.93
2018-07-20T21:24:15.832Z,9.47
2018-07-20T21:26:44.058Z,14.47
2018-07-20T21:29:12.253Z,13.00
2018-07-20T21:31:40.482Z,11.03
2018-07-20T21:34:08.822Z,13.33
2018-07-20T21:36:37.093Z,8.80
2018-07-20T21:39:07.969Z,8.13
2018-07-20T21:41:36.032Z,15.60
2018-07-20T21:44:04.623Z,8.60
2018-07-20T21:46:32.886Z,13.17
2018-07-20T21:49:01.086Z,12.57
2018-07-20T21:51:29.313Z,8.27
2018-07-20T21:53:57.513Z,10.60
2018-07-20T21:56:25.859Z,10.37
2018-07-20T21:58:54.061Z,11.83
2018-07-20T22:01:22.273Z,7.97
2018-07-20T22:03:50.501Z,10.60
2018-07-20T22:06:18.716Z,12.07
2018-07-20T22:08:46.942Z,13.17
2018-07-20T22:11:15.146Z,10.13
2018-07-20T22:13:43.384Z,11.97
2018-07-20T22:16:11.590Z,9.70
2018-07-20T22:18:39.806Z,8.77
2018-07-20T22:21:07.764Z,8.73
2018-07-20T22:23:35.977Z,10.90
2018-07-20T22:26:04.247Z,11.37
2018-07-20T22:28:32.470Z,7.10
2018-07-20T22:31:00.686Z,10.57
2018-07-20T22:33:28.918Z,10.67
2018-07-20T22:35:57.138Z,10.53
2018-07-20T22:38:25.374Z,10.93
2018-07-20T22:40:53.598Z,9.33
2018-07-20T22:43:21.809Z,11.57
2018-07-20T22:45:50.016Z,8.73
2018-07-20T22:48:18.289Z,7.00
2018-07-20T22:50:46.539Z,8.47
2018-07-20T22:53:14.791Z,11.27
2018-07-20T22:55:42.999Z,12.33
2018-07-20T22:58:11.198Z,12.57
2018-07-20T23:00:39.436Z,9.83
2018-07-20T23:03:07.701Z,11.00
2018-07-20T23:05:35.920Z,13.30
2018-07-20T23:08:04.384Z,11.40
2018-07-20T23:10:32.615Z,10.00
2018-07-20T23:13:00.822Z,8.40
2018-07-20T23:15:29.024Z,9.97
2018-07-20T23:17:58.276Z,12.93
2018-07-20T23:20:26.488Z,9.67
2018-07-20T23:22:54.717Z,13.90
2018-07-20T23:25:22.929Z,17.60
2018-07-20T23:27:51.149Z,12.60
2018-07-20T23:30:19.373Z,10.53
2018-07-20T23:32:47.578Z,17.30
2018-07-20T23:35:15.802Z,9.57
2018-07-20T23:37:44.271Z,11.27
2018-07-20T23:40:12.486Z,9.03
2018-07-20T23:42:40.685Z,13.83
2018-07-20T23:45:08.928Z,9.87
2018-07-20T23:47:37.145Z,10.70
2018-07-20T23:50:05.435Z,13.43
2018-07-20T23:52:33.677Z,9.43
2018-07-20T23:55:01.876Z,9.87
2018-07-20T23:57:30.106Z,15.50
2018-07-20T23:59:58.299Z,16.80
